Aragon, Georgia
Current Conditions -  °F | °C
As of 1:15 AM on Monday 26 Jan 2015 (Local Time) from KPUJ Reporting Station
Broken Clouds Broken Clouds  
Wind Chill:   Ceiling: 9000
Heat Index:   Visibility: 10mi
Dew Point:   Wind: 5mph
Humidity: 100%   Direction: 270°W
Pressure: 29.73"   Gusts: NA
Location:  34.05°N, 85.06°W
Report Text: KPUJ 260615Z AUTO 27004KT 10SM BKN090 06/06 A2973 RMK AO2
Loading
Personal Weather Stations






























Interactive Weather Map New forecast layout! Learn more

10-Day Weather Forecast

Advertisements
Track Severe Weather on mobile